Time,TemperatureF,DewpointF,PressureIn,WindDirection,WindDirectionDegrees,WindSpeedMPH,WindSpeedGustMPH,Humidity,HourlyPrecipIn,Conditions,Clouds,dailyrainin,SoftwareType,DateUTC
2014-07-28 00:13:00,69.0,69.0,29.75,WNW,295,0.0,1.0,99,0.00,,,0.43,,2014-07-28 04:13:00,
2014-07-28 00:43:00,68.0,68.0,29.75,WNW,295,0.0,3.0,100,0.00,,,0.38,,2014-07-28 04:43:00,
2014-07-28 01:13:00,67.0,67.0,29.75,NNW,342,0.0,3.0,99,0.00,,,0.38,,2014-07-28 05:13:00,
2014-07-28 01:43:00,66.0,65.0,29.76,WNW,288,0.0,1.0,95,0.00,,,0.37,,2014-07-28 05:43:00,
2014-07-28 02:13:00,67.0,63.0,29.76,West,277,1.0,8.0,88,0.00,,,0.37,,2014-07-28 06:13:00,
2014-07-28 02:42:00,67.0,62.0,29.77,WNW,292,0.0,5.0,83,0.00,,,0.37,,2014-07-28 06:42:00,
2014-07-28 03:12:00,66.0,62.0,29.77,NW,307,0.0,1.0,86,0.00,,,0.37,,2014-07-28 07:12:00,
2014-07-28 03:42:00,65.0,62.0,29.77,WNW,283,0.0,0.0,90,0.00,,,0.37,,2014-07-28 07:42:00,
2014-07-28 04:13:00,64.0,61.0,29.78,WNW,284,0.0,0.0,91,0.00,,,0.37,,2014-07-28 08:13:00,
2014-07-28 05:12:00,63.0,61.0,29.78,NE,40,0.0,3.0,93,0.00,,,0.37,,2014-07-28 09:12:00,
2014-07-28 05:43:00,63.0,61.0,29.80,NNW,338,0.0,3.0,93,0.00,,,0.37,,2014-07-28 09:43:00,
2014-07-28 06:04:00,63.0,61.0,29.80,West,280,0.0,2.0,94,0.00,,,0.37,,2014-07-28 10:04:00,
2014-07-28 06:13:00,63.0,61.0,29.80,West,280,0.0,2.0,94,0.00,,,0.37,,2014-07-28 10:13:00,
2014-07-28 06:42:00,62.0,61.0,29.82,WSW,253,0.0,3.0,95,0.00,,,0.36,,2014-07-28 10:42:00,
2014-07-28 07:12:00,62.0,60.0,29.83,West,273,0.0,2.0,94,0.00,,,0.36,,2014-07-28 11:12:00,
2014-07-28 07:42:00,62.0,60.0,29.83,West,277,0.0,3.0,93,0.00,,,0.36,,2014-07-28 11:42:00,
2014-07-28 08:12:00,62.0,60.0,29.84,WSW,256,0.0,1.0,94,0.00,,,0.36,,2014-07-28 12:12:00,
2014-07-28 08:47:00,63.0,62.0,29.85,SW,224,0.0,0.0,95,0.00,,,0.36,,2014-07-28 12:47:00,
2014-07-28 09:32:00,64.0,62.0,29.86,WNW,287,0.0,7.0,92,0.00,,,0.36,,2014-07-28 13:32:00,
2014-07-28 10:13:00,65.0,62.0,29.88,WNW,291,1.0,6.0,90,0.00,,,0.32,,2014-07-28 14:13:00,
2014-07-28 10:42:00,65.0,62.0,29.88,West,259,0.0,4.0,90,0.00,,,0.31,,2014-07-28 14:42:00,
2014-07-28 11:12:00,66.0,62.0,29.89,North,359,1.0,4.0,88,0.00,,,0.31,,2014-07-28 15:12:00,
2014-07-28 11:44:00,67.0,63.0,29.90,NW,322,0.0,3.0,86,0.00,,,0.31,,2014-07-28 15:44:00,
2014-07-28 13:13:00,69.0,63.0,29.92,WNW,295,0.0,4.0,81,0.00,,,0.28,,2014-07-28 17:13:00,
2014-07-28 13:44:00,69.0,63.0,29.91,West,269,0.0,6.0,80,0.00,,,0.28,,2014-07-28 17:44:00,
2014-07-28 14:42:00,72.0,64.0,29.92,West,271,0.0,4.0,76,0.00,,,0.28,,2014-07-28 18:42:00,
2014-07-28 15:43:00,72.0,65.0,29.92,West,269,0.0,5.0,79,0.01,,,0.30,,2014-07-28 19:43:00,